Impacts TAF Board INFO
FOR SITUATIONAL AWARENESS. NOT TO BE USED FOR FLIGHT PLANNING PURPOSES.
IDs:

KEWR - Newark Intl, NJ, US

Issued at 0826 UTC 18 Jan 2018
Updated at 1001 UTC 18 Jan 2018
Potential Impact None Slight Moderate High
Time<<18/22Z 18/23Z 19/00Z 19/01Z 19/02Z 19/03Z 19/04Z 19/05Z 19/06Z 19/07Z 19/08Z 19/09Z 19/10Z>>
Type PRVL PRVL PRVL PRVL PRVL PRVL PRVL PRVL PRVL PRVL PRVL PRVL PRVL
VIS >6 >6 >6 >6 >6 >6 >6 >6 >6 >6 >6 >6 >6
CIG -- -- -- -- -- -- -- -- -- -- -- -- --
Cover FEW SKC SKC SKC SKC SKC SKC SKC SKC SCT SCT SCT SCT
FltCat VFR VFR VFR VFR VFR VFR VFR VFR VFR VFR VFR VFR VFR
WX -- -- -- -- -- -- -- -- -- -- -- -- --
WDir 310 310 310 310 310 310 290 290 290 280 280 280 280
WSpd 15 10 10 10 10 10 8 8 8 6 6 6 6
WGst 22 16 16 16 16 16 -- -- -- -- -- -- --

Raw TAF
KEWR 180826Z 1808/1912 30009KT P6SM SKC
  FM181500 29014G20KT P6SM SKC
  FM181800 31015G22KT P6SM FEW030
  FM182300 31010G16KT P6SM SKC
  FM190400 29008KT P6SM SKC
  FM190700 28006KT P6SM FEW030 SCT170


METAR Board
Radar Display
Forecast Discussion

FOR SITUATIONAL AWARENESS. NOT TO BE USED FOR FLIGHT PLANNING PURPOSES.